sensor_id;sensor_type;location;lat;lon;timestamp;temperature;humidity
4795;DHT22;2411;47.060;15.064;2023-07-08T00:01:36;14.20;1.00
4795;DHT22;2411;47.060;15.064;2023-07-08T00:04:04;14.20;1.00
4795;DHT22;2411;47.060;15.064;2023-07-08T00:06:32;14.30;1.00
4795;DHT22;2411;47.060;15.064;2023-07-08T00:08:59;14.20;1.00
4795;DHT22;2411;47.060;15.064;2023-07-08T00:11:28;14.00;1.00
4795;DHT22;2411;47.060;15.064;2023-07-08T00:13:56;14.10;1.00
4795;DHT22;2411;47.060;15.064;2023-07-08T00:16:24;14.00;1.00
4795;DHT22;2411;47.060;15.064;2023-07-08T00:18:51;14.00;1.00
4795;DHT22;2411;47.060;15.064;2023-07-08T00:21:18;14.00;1.00
4795;DHT22;2411;47.060;15.064;2023-07-08T00:23:50;14.00;1.00
4795;DHT22;2411;47.060;15.064;2023-07-08T00:26:26;14.00;1.00
4795;DHT22;2411;47.060;15.064;2023-07-08T00:28:54;14.00;1.00
4795;DHT22;2411;47.060;15.064;2023-07-08T00:31:23;14.10;1.00
4795;DHT22;2411;47.060;15.064;2023-07-08T00:33:53;14.00;1.00
4795;DHT22;2411;47.060;15.064;2023-07-08T00:36:26;14.00;1.00
4795;DHT22;2411;47.060;15.064;2023-07-08T00:38:54;14.00;1.00
4795;DHT22;2411;47.060;15.064;2023-07-08T00:44:00;13.90;1.00
4795;DHT22;2411;47.060;15.064;2023-07-08T00:51:37;13.60;1.00
4795;DHT22;2411;47.060;15.064;2023-07-08T00:54:17;13.60;1.00
4795;DHT22;2411;47.060;15.064;2023-07-08T00:56:54;13.60;1.00
4795;DHT22;2411;47.060;15.064;2023-07-08T00:59:33;13.60;1.00
4795;DHT22;2411;47.060;15.064;2023-07-08T01:02:03;13.60;1.00
4795;DHT22;2411;47.060;15.064;2023-07-08T01:07:09;13.70;1.00
4795;DHT22;2411;47.060;15.064;2023-07-08T01:09:40;13.70;1.00
4795;DHT22;2411;47.060;15.064;2023-07-08T01:12:13;13.80;1.00
4795;DHT22;2411;47.060;15.064;2023-07-08T01:14:42;13.80;1.00
4795;DHT22;2411;47.060;15.064;2023-07-08T01:17:10;13.70;1.00
4795;DHT22;2411;47.060;15.064;2023-07-08T01:19:43;13.60;1.00
4795;DHT22;2411;47.060;15.064;2023-07-08T01:22:11;13.60;1.00
4795;DHT22;2411;47.060;15.064;2023-07-08T01:24:41;13.60;1.00
4795;DHT22;2411;47.060;15.064;2023-07-08T01:27:12;13.60;1.00
4795;DHT22;2411;47.060;15.064;2023-07-08T01:29:41;13.60;1.00
4795;DHT22;2411;47.060;15.064;2023-07-08T01:32:17;13.50;1.00
4795;DHT22;2411;47.060;15.064;2023-07-08T01:34:46;13.50;1.00
4795;DHT22;2411;47.060;15.064;2023-07-08T01:37:36;13.50;1.00
4795;DHT22;2411;47.060;15.064;2023-07-08T01:40:33;13.40;1.00
4795;DHT22;2411;47.060;15.064;2023-07-08T01:43:02;13.40;1.00
4795;DHT22;2411;47.060;15.064;2023-07-08T01:45:35;13.50;1.00
4795;DHT22;2411;47.060;15.064;2023-07-08T01:48:09;13.50;1.00
4795;DHT22;2411;47.060;15.064;2023-07-08T01:51:01;13.50;1.00
4795;DHT22;2411;47.060;15.064;2023-07-08T01:53:35;13.50;1.00
4795;DHT22;2411;47.060;15.064;2023-07-08T01:56:04;13.50;1.00
4795;DHT22;2411;47.060;15.064;2023-07-08T01:58:32;13.60;1.00
4795;DHT22;2411;47.060;15.064;2023-07-08T02:00:59;13.60;1.00
4795;DHT22;2411;47.060;15.064;2023-07-08T02:03:28;13.60;1.00
4795;DHT22;2411;47.060;15.064;2023-07-08T02:05:55;13.70;1.00
4795;DHT22;2411;47.060;15.064;2023-07-08T02:08:23;13.60;1.00
4795;DHT22;2411;47.060;15.064;2023-07-08T02:10:52;13.50;1.00
4795;DHT22;2411;47.060;15.064;2023-07-08T02:13:20;13.50;1.00
4795;DHT22;2411;47.060;15.064;2023-07-08T02:15:49;13.50;1.00
4795;DHT22;2411;47.060;15.064;2023-07-08T02:18:17;13.50;1.00
4795;DHT22;2411;47.060;15.064;2023-07-08T02:20:47;13.30;1.00
4795;DHT22;2411;47.060;15.064;2023-07-08T02:23:15;13.30;1.00
4795;DHT22;2411;47.060;15.064;2023-07-08T02:25:53;13.40;1.00
4795;DHT22;2411;47.060;15.064;2023-07-08T02:28:21;13.20;1.00
4795;DHT22;2411;47.060;15.064;2023-07-08T02:30:48;13.20;1.00
4795;DHT22;2411;47.060;15.064;2023-07-08T02:33:16;13.30;1.00
4795;DHT22;2411;47.060;15.064;2023-07-08T02:35:46;13.20;1.00
4795;DHT22;2411;47.060;15.064;2023-07-08T02:38:13;13.20;1.00
4795;DHT22;2411;47.060;15.064;2023-07-08T02:40:41;13.20;1.00
4795;DHT22;2411;47.060;15.064;2023-07-08T02:43:08;13.20;1.00
4795;DHT22;2411;47.060;15.064;2023-07-08T02:45:36;13.30;1.00
4795;DHT22;2411;47.060;15.064;2023-07-08T02:48:03;13.30;1.00
4795;DHT22;2411;47.060;15.064;2023-07-08T02:50:31;13.40;1.00
4795;DHT22;2411;47.060;15.064;2023-07-08T02:52:58;13.50;1.00
4795;DHT22;2411;47.060;15.064;2023-07-08T02:55:25;13.50;1.00
4795;DHT22;2411;47.060;15.064;2023-07-08T02:57:53;13.50;1.00
4795;DHT22;2411;47.060;15.064;2023-07-08T03:00:20;13.30;1.00
4795;DHT22;2411;47.060;15.064;2023-07-08T03:02:47;13.30;1.00
4795;DHT22;2411;47.060;15.064;2023-07-08T03:05:15;13.30;1.00
4795;DHT22;2411;47.060;15.064;2023-07-08T03:07:42;13.20;1.00
4795;DHT22;2411;47.060;15.064;2023-07-08T03:10:09;13.10;1.00
4795;DHT22;2411;47.060;15.064;2023-07-08T03:12:37;13.00;5.80
4795;DHT22;2411;47.060;15.064;2023-07-08T03:15:05;13.10;9.40
4795;DHT22;2411;47.060;15.064;2023-07-08T03:17:32;13.10;11.10
4795;DHT22;2411;47.060;15.064;2023-07-08T03:20:00;13.00;13.30
4795;DHT22;2411;47.060;15.064;2023-07-08T03:22:27;13.00;9.70
4795;DHT22;2411;47.060;15.064;2023-07-08T03:24:54;13.00;9.60
4795;DHT22;2411;47.060;15.064;2023-07-08T03:27:22;13.00;6.00
4795;DHT22;2411;47.060;15.064;2023-07-08T03:29:50;13.00;3.80
4795;DHT22;2411;47.060;15.064;2023-07-08T03:32:17;13.00;1.00
4795;DHT22;2411;47.060;15.064;2023-07-08T03:34:44;13.10;1.00
4795;DHT22;2411;47.060;15.064;2023-07-08T03:37:12;13.20;1.00
4795;DHT22;2411;47.060;15.064;2023-07-08T03:39:39;13.20;1.00
4795;DHT22;2411;47.060;15.064;2023-07-08T03:42:06;13.30;1.00
4795;DHT22;2411;47.060;15.064;2023-07-08T03:44:34;13.40;1.00
4795;DHT22;2411;47.060;15.064;2023-07-08T03:47:01;13.40;1.00
4795;DHT22;2411;47.060;15.064;2023-07-08T03:49:29;13.60;1.00
4795;DHT22;2411;47.060;15.064;2023-07-08T03:51:56;13.40;1.00
4795;DHT22;2411;47.060;15.064;2023-07-08T03:54:24;13.50;1.00
4795;DHT22;2411;47.060;15.064;2023-07-08T03:56:52;13.40;1.00
4795;DHT22;2411;47.060;15.064;2023-07-08T03:59:20;13.60;1.00
4795;DHT22;2411;47.060;15.064;2023-07-08T04:01:47;13.60;1.00
4795;DHT22;2411;47.060;15.064;2023-07-08T04:04:15;13.70;1.00
4795;DHT22;2411;47.060;15.064;2023-07-08T04:06:44;13.90;1.00
4795;DHT22;2411;47.060;15.064;2023-07-08T04:09:12;14.10;1.00
4795;DHT22;2411;47.060;15.064;2023-07-08T04:11:40;14.20;1.00
4795;DHT22;2411;47.060;15.064;2023-07-08T04:14:10;14.20;1.00
4795;DHT22;2411;47.060;15.064;2023-07-08T04:16:45;14.20;1.00
4795;DHT22;2411;47.060;15.064;2023-07-08T04:19:14;14.30;1.00
4795;DHT22;2411;47.060;15.064;2023-07-08T04:21:44;14.30;1.00
4795;DHT22;2411;47.060;15.064;2023-07-08T04:24:13;14.30;1.00
4795;DHT22;2411;47.060;15.064;2023-07-08T04:26:41;14.30;1.00
4795;DHT22;2411;47.060;15.064;2023-07-08T04:29:16;14.50;1.00
4795;DHT22;2411;47.060;15.064;2023-07-08T04:31:44;14.60;1.00
4795;DHT22;2411;47.060;15.064;2023-07-08T04:34:14;14.70;1.00
4795;DHT22;2411;47.060;15.064;2023-07-08T04:36:42;14.90;1.00
4795;DHT22;2411;47.060;15.064;2023-07-08T04:39:09;15.00;1.00
4795;DHT22;2411;47.060;15.064;2023-07-08T04:41:37;15.10;1.00
4795;DHT22;2411;47.060;15.064;2023-07-08T04:44:11;15.20;1.00
4795;DHT22;2411;47.060;15.064;2023-07-08T04:46:44;15.30;1.00
4795;DHT22;2411;47.060;15.064;2023-07-08T04:49:12;15.40;1.00
4795;DHT22;2411;47.060;15.064;2023-07-08T04:51:43;15.50;1.00
4795;DHT22;2411;47.060;15.064;2023-07-08T04:54:11;15.50;1.00
4795;DHT22;2411;47.060;15.064;2023-07-08T04:56:47;15.60;1.00
4795;DHT22;2411;47.060;15.064;2023-07-08T04:59:17;15.50;1.00
4795;DHT22;2411;47.060;15.064;2023-07-08T05:01:45;15.60;1.00
4795;DHT22;2411;47.060;15.064;2023-07-08T05:04:17;15.70;1.00
4795;DHT22;2411;47.060;15.064;2023-07-08T05:06:45;15.80;1.00
4795;DHT22;2411;47.060;15.064;2023-07-08T05:09:12;15.90;1.00
4795;DHT22;2411;47.060;15.064;2023-07-08T05:11:43;15.90;1.00
4795;DHT22;2411;47.060;15.064;2023-07-08T05:14:12;16.00;1.00
4795;DHT22;2411;47.060;15.064;2023-07-08T05:16:40;16.10;1.00
4795;DHT22;2411;47.060;15.064;2023-07-08T05:19:07;16.30;1.00
4795;DHT22;2411;47.060;15.064;2023-07-08T05:21:35;16.40;1.00
4795;DHT22;2411;47.060;15.064;2023-07-08T05:24:03;16.50;1.00
4795;DHT22;2411;47.060;15.064;2023-07-08T05:26:32;16.60;1.00
4795;DHT22;2411;47.060;15.064;2023-07-08T05:28:59;16.70;1.00
4795;DHT22;2411;47.060;15.064;2023-07-08T05:31:27;16.90;1.00
4795;DHT22;2411;47.060;15.064;2023-07-08T05:34:13;16.90;1.00
4795;DHT22;2411;47.060;15.064;2023-07-08T05:36:41;17.10;1.00
4795;DHT22;2411;47.060;15.064;2023-07-08T05:39:08;17.20;1.00
4795;DHT22;2411;47.060;15.064;2023-07-08T05:41:35;17.30;1.00
4795;DHT22;2411;47.060;15.064;2023-07-08T05:44:03;17.40;1.00
4795;DHT22;2411;47.060;15.064;2023-07-08T05:46:30;17.50;1.00
4795;DHT22;2411;47.060;15.064;2023-07-08T05:48:58;17.60;1.00
4795;DHT22;2411;47.060;15.064;2023-07-08T05:51:28;17.70;1.00
4795;DHT22;2411;47.060;15.064;2023-07-08T05:53:55;17.70;1.00
4795;DHT22;2411;47.060;15.064;2023-07-08T05:56:22;17.90;1.00
4795;DHT22;2411;47.060;15.064;2023-07-08T05:58:50;18.00;1.00
4795;DHT22;2411;47.060;15.064;2023-07-08T06:01:17;18.10;1.00
4795;DHT22;2411;47.060;15.064;2023-07-08T06:03:45;18.10;1.00
4795;DHT22;2411;47.060;15.064;2023-07-08T06:06:12;18.20;1.00
4795;DHT22;2411;47.060;15.064;2023-07-08T06:08:40;18.30;1.00
4795;DHT22;2411;47.060;15.064;2023-07-08T06:11:07;18.40;1.00
4795;DHT22;2411;47.060;15.064;2023-07-08T06:13:35;18.50;1.00
4795;DHT22;2411;47.060;15.064;2023-07-08T06:16:02;18.60;1.00
4795;DHT22;2411;47.060;15.064;2023-07-08T06:18:29;18.70;1.00
4795;DHT22;2411;47.060;15.064;2023-07-08T06:20:58;18.90;1.00
4795;DHT22;2411;47.060;15.064;2023-07-08T06:23:26;18.90;1.00
4795;DHT22;2411;47.060;15.064;2023-07-08T06:25:53;19.00;1.00
4795;DHT22;2411;47.060;15.064;2023-07-08T06:28:21;19.00;1.00
4795;DHT22;2411;47.060;15.064;2023-07-08T06:30:49;19.10;1.00
4795;DHT22;2411;47.060;15.064;2023-07-08T06:33:16;19.30;1.00
4795;DHT22;2411;47.060;15.064;2023-07-08T06:35:44;19.40;1.00
4795;DHT22;2411;47.060;15.064;2023-07-08T06:38:12;19.40;1.00
4795;DHT22;2411;47.060;15.064;2023-07-08T06:40:40;19.60;1.00
4795;DHT22;2411;47.060;15.064;2023-07-08T06:43:07;19.70;1.00
4795;DHT22;2411;47.060;15.064;2023-07-08T06:45:34;19.90;1.00
4795;DHT22;2411;47.060;15.064;2023-07-08T06:48:02;20.10;1.00
4795;DHT22;2411;47.060;15.064;2023-07-08T06:50:29;20.30;1.00
4795;DHT22;2411;47.060;15.064;2023-07-08T06:52:57;20.50;1.00
4795;DHT22;2411;47.060;15.064;2023-07-08T06:55:24;20.50;1.00
4795;DHT22;2411;47.060;15.064;2023-07-08T06:57:51;20.70;1.00
4795;DHT22;2411;47.060;15.064;2023-07-08T07:00:19;20.70;1.00
4795;DHT22;2411;47.060;15.064;2023-07-08T07:02:46;20.60;1.00
4795;DHT22;2411;47.060;15.064;2023-07-08T07:05:14;20.50;1.00
4795;DHT22;2411;47.060;15.064;2023-07-08T07:07:41;20.50;1.00
4795;DHT22;2411;47.060;15.064;2023-07-08T07:10:08;20.40;1.00
4795;DHT22;2411;47.060;15.064;2023-07-08T07:12:36;20.50;1.00
4795;DHT22;2411;47.060;15.064;2023-07-08T07:15:04;20.60;1.00
4795;DHT22;2411;47.060;15.064;2023-07-08T07:17:32;20.70;1.00
4795;DHT22;2411;47.060;15.064;2023-07-08T07:19:59;20.80;1.00
4795;DHT22;2411;47.060;15.064;2023-07-08T07:22:26;21.00;1.00
4795;DHT22;2411;47.060;15.064;2023-07-08T07:24:54;20.90;1.00
4795;DHT22;2411;47.060;15.064;2023-07-08T07:27:22;21.10;1.00
4795;DHT22;2411;47.060;15.064;2023-07-08T07:29:50;21.10;1.00
4795;DHT22;2411;47.060;15.064;2023-07-08T07:32:19;21.20;1.00
4795;DHT22;2411;47.060;15.064;2023-07-08T07:34:49;21.40;1.00
4795;DHT22;2411;47.060;15.064;2023-07-08T07:37:19;21.60;1.00
4795;DHT22;2411;47.060;15.064;2023-07-08T07:39:47;21.70;1.00
4795;DHT22;2411;47.060;15.064;2023-07-08T07:42:16;21.70;1.00
4795;DHT22;2411;47.060;15.064;2023-07-08T07:44:44;21.70;1.00
4795;DHT22;2411;47.060;15.064;2023-07-08T07:47:12;21.80;1.00
4795;DHT22;2411;47.060;15.064;2023-07-08T07:49:40;22.00;1.00
4795;DHT22;2411;47.060;15.064;2023-07-08T07:52:08;22.00;1.00
4795;DHT22;2411;47.060;15.064;2023-07-08T07:54:38;22.10;1.00
4795;DHT22;2411;47.060;15.064;2023-07-08T07:57:06;22.30;1.00
4795;DHT22;2411;47.060;15.064;2023-07-08T07:59:33;22.50;1.00
4795;DHT22;2411;47.060;15.064;2023-07-08T08:02:01;22.60;1.00
4795;DHT22;2411;47.060;15.064;2023-07-08T08:04:28;22.60;1.00
4795;DHT22;2411;47.060;15.064;2023-07-08T08:06:55;22.70;1.00
4795;DHT22;2411;47.060;15.064;2023-07-08T08:09:22;22.80;1.00
4795;DHT22;2411;47.060;15.064;2023-07-08T08:11:50;22.80;1.00
4795;DHT22;2411;47.060;15.064;2023-07-08T08:14:19;22.90;1.00
4795;DHT22;2411;47.060;15.064;2023-07-08T08:16:46;23.00;1.00
4795;DHT22;2411;47.060;15.064;2023-07-08T08:19:13;23.00;1.00
4795;DHT22;2411;47.060;15.064;2023-07-08T08:21:41;23.00;1.00
4795;DHT22;2411;47.060;15.064;2023-07-08T08:24:08;23.10;1.00
4795;DHT22;2411;47.060;15.064;2023-07-08T08:26:35;23.10;1.00
4795;DHT22;2411;47.060;15.064;2023-07-08T08:29:03;23.30;1.00
4795;DHT22;2411;47.060;15.064;2023-07-08T08:31:30;23.20;1.00
4795;DHT22;2411;47.060;15.064;2023-07-08T08:33:58;23.30;1.00
4795;DHT22;2411;47.060;15.064;2023-07-08T08:36:25;23.30;1.00
4795;DHT22;2411;47.060;15.064;2023-07-08T08:38:53;23.40;1.00
4795;DHT22;2411;47.060;15.064;2023-07-08T08:41:34;23.50;1.00
4795;DHT22;2411;47.060;15.064;2023-07-08T08:44:03;23.50;1.00
4795;DHT22;2411;47.060;15.064;2023-07-08T08:51:48;24.00;1.00
4795;DHT22;2411;47.060;15.064;2023-07-08T08:54:15;24.00;1.00
4795;DHT22;2411;47.060;15.064;2023-07-08T09:02:00;24.30;1.00
4795;DHT22;2411;47.060;15.064;2023-07-08T09:04:33;24.30;1.00
4795;DHT22;2411;47.060;15.064;2023-07-08T09:07:08;24.30;1.00
4795;DHT22;2411;47.060;15.064;2023-07-08T09:10:04;24.40;1.00
4795;DHT22;2411;47.060;15.064;2023-07-08T09:12:35;24.40;1.00
4795;DHT22;2411;47.060;15.064;2023-07-08T09:15:28;24.40;1.00
4795;DHT22;2411;47.060;15.064;2023-07-08T09:18:02;24.70;1.00
4795;DHT22;2411;47.060;15.064;2023-07-08T09:20:34;24.80;1.00
4795;DHT22;2411;47.060;15.064;2023-07-08T09:23:09;24.90;1.00
4795;DHT22;2411;47.060;15.064;2023-07-08T09:28:09;24.90;1.00
4795;DHT22;2411;47.060;15.064;2023-07-08T09:30:36;25.00;1.00
4795;DHT22;2411;47.060;15.064;2023-07-08T09:33:04;25.30;1.00
4795;DHT22;2411;47.060;15.064;2023-07-08T09:35:43;25.40;1.00
4795;DHT22;2411;47.060;15.064;2023-07-08T09:38:17;25.50;1.00
4795;DHT22;2411;47.060;15.064;2023-07-08T09:40:52;25.40;1.00
4795;DHT22;2411;47.060;15.064;2023-07-08T09:43:34;25.30;1.00
4795;DHT22;2411;47.060;15.064;2023-07-08T09:46:11;25.50;1.00
4795;DHT22;2411;47.060;15.064;2023-07-08T09:48:38;25.50;1.00
4795;DHT22;2411;47.060;15.064;2023-07-08T09:51:06;25.60;1.00
4795;DHT22;2411;47.060;15.064;2023-07-08T09:53:38;25.70;1.00
4795;DHT22;2411;47.060;15.064;2023-07-08T09:56:08;25.60;1.00
4795;DHT22;2411;47.060;15.064;2023-07-08T09:58:40;25.90;1.00
4795;DHT22;2411;47.060;15.064;2023-07-08T10:01:13;25.80;1.00
4795;DHT22;2411;47.060;15.064;2023-07-08T10:03:41;25.60;1.00
4795;DHT22;2411;47.060;15.064;2023-07-08T10:06:26;25.50;1.00
4795;DHT22;2411;47.060;15.064;2023-07-08T10:08:55;25.30;1.00
4795;DHT22;2411;47.060;15.064;2023-07-08T10:11:46;25.40;1.00
4795;DHT22;2411;47.060;15.064;2023-07-08T10:14:25;25.40;1.00
4795;DHT22;2411;47.060;15.064;2023-07-08T10:16:54;25.40;1.00
4795;DHT22;2411;47.060;15.064;2023-07-08T10:19:22;25.60;1.00
4795;DHT22;2411;47.060;15.064;2023-07-08T10:24:58;26.20;1.00
4795;DHT22;2411;47.060;15.064;2023-07-08T10:27:47;26.20;1.00
4795;DHT22;2411;47.060;15.064;2023-07-08T10:31:11;26.30;1.00
4795;DHT22;2411;47.060;15.064;2023-07-08T10:36:22;25.90;1.00
4795;DHT22;2411;47.060;15.064;2023-07-08T10:45:13;26.10;1.00
4795;DHT22;2411;47.060;15.064;2023-07-08T10:53:51;26.30;1.00
4795;DHT22;2411;47.060;15.064;2023-07-08T11:04:58;26.80;1.00
4795;DHT22;2411;47.060;15.064;2023-07-08T11:07:46;26.90;1.00
4795;DHT22;2411;47.060;15.064;2023-07-08T11:12:57;26.60;1.00
4795;DHT22;2411;47.060;15.064;2023-07-08T11:18:25;27.10;1.00
4795;DHT22;2411;47.060;15.064;2023-07-08T11:26:42;27.60;1.00
4795;DHT22;2411;47.060;15.064;2023-07-08T11:29:39;26.80;1.00
4795;DHT22;2411;47.060;15.064;2023-07-08T11:32:13;26.70;1.00
4795;DHT22;2411;47.060;15.064;2023-07-08T11:34:46;26.70;1.00
4795;DHT22;2411;47.060;15.064;2023-07-08T11:37:14;27.00;1.00
4795;DHT22;2411;47.060;15.064;2023-07-08T11:39:44;27.20;1.00
4795;DHT22;2411;47.060;15.064;2023-07-08T11:45:30;27.10;1.00
4795;DHT22;2411;47.060;15.064;2023-07-08T11:48:37;26.80;1.00
4795;DHT22;2411;47.060;15.064;2023-07-08T11:51:06;26.70;1.00
4795;DHT22;2411;47.060;15.064;2023-07-08T11:53:46;26.80;1.00
4795;DHT22;2411;47.060;15.064;2023-07-08T11:58:58;27.30;1.00
4795;DHT22;2411;47.060;15.064;2023-07-08T12:01:32;27.00;1.00
4795;DHT22;2411;47.060;15.064;2023-07-08T12:09:23;27.20;1.00
4795;DHT22;2411;47.060;15.064;2023-07-08T12:12:06;27.20;1.00
4795;DHT22;2411;47.060;15.064;2023-07-08T12:14:36;27.30;1.00
4795;DHT22;2411;47.060;15.064;2023-07-08T12:17:11;27.40;1.00
4795;DHT22;2411;47.060;15.064;2023-07-08T12:19:40;27.60;1.00
4795;DHT22;2411;47.060;15.064;2023-07-08T12:22:10;27.70;1.00
4795;DHT22;2411;47.060;15.064;2023-07-08T12:24:40;27.70;1.00
4795;DHT22;2411;47.060;15.064;2023-07-08T12:27:10;27.70;1.00
4795;DHT22;2411;47.060;15.064;2023-07-08T12:29:40;27.90;1.00
4795;DHT22;2411;47.060;15.064;2023-07-08T12:32:11;27.60;1.00
4795;DHT22;2411;47.060;15.064;2023-07-08T12:34:39;27.80;1.00
4795;DHT22;2411;47.060;15.064;2023-07-08T12:37:11;27.80;1.00
4795;DHT22;2411;47.060;15.064;2023-07-08T12:39:39;27.80;1.00
4795;DHT22;2411;47.060;15.064;2023-07-08T12:42:11;27.70;1.00
4795;DHT22;2411;47.060;15.064;2023-07-08T12:44:39;27.90;1.00
4795;DHT22;2411;47.060;15.064;2023-07-08T12:47:09;27.80;1.00
4795;DHT22;2411;47.060;15.064;2023-07-08T12:49:37;28.00;1.00
4795;DHT22;2411;47.060;15.064;2023-07-08T12:52:05;27.90;1.00
4795;DHT22;2411;47.060;15.064;2023-07-08T12:54:32;28.30;1.00
4795;DHT22;2411;47.060;15.064;2023-07-08T12:57:01;28.20;3.50
4795;DHT22;2411;47.060;15.064;2023-07-08T12:59:29;28.20;1.00
4795;DHT22;2411;47.060;15.064;2023-07-08T13:01:57;27.90;1.00
4795;DHT22;2411;47.060;15.064;2023-07-08T13:04:27;28.00;1.00
4795;DHT22;2411;47.060;15.064;2023-07-08T13:06:55;28.10;1.00
4795;DHT22;2411;47.060;15.064;2023-07-08T13:09:40;28.10;1.00
4795;DHT22;2411;47.060;15.064;2023-07-08T13:12:16;28.30;1.00
4795;DHT22;2411;47.060;15.064;2023-07-08T13:14:45;28.50;1.00
4795;DHT22;2411;47.060;15.064;2023-07-08T13:17:14;28.30;1.00
4795;DHT22;2411;47.060;15.064;2023-07-08T13:19:43;28.50;1.00
4795;DHT22;2411;47.060;15.064;2023-07-08T13:22:20;28.50;1.00
4795;DHT22;2411;47.060;15.064;2023-07-08T13:24:48;28.20;1.00
4795;DHT22;2411;47.060;15.064;2023-07-08T13:27:24;27.90;1.00
4795;DHT22;2411;47.060;15.064;2023-07-08T13:29:56;28.20;1.00
4795;DHT22;2411;47.060;15.064;2023-07-08T13:32:30;28.20;1.00
4795;DHT22;2411;47.060;15.064;2023-07-08T13:34:58;28.30;1.00
4795;DHT22;2411;47.060;15.064;2023-07-08T13:37:26;28.40;1.00
4795;DHT22;2411;47.060;15.064;2023-07-08T13:39:54;28.10;1.00
4795;DHT22;2411;47.060;15.064;2023-07-08T13:42:21;28.10;1.00
4795;DHT22;2411;47.060;15.064;2023-07-08T13:44:49;28.10;1.00
4795;DHT22;2411;47.060;15.064;2023-07-08T13:47:29;28.10;1.00
4795;DHT22;2411;47.060;15.064;2023-07-08T13:50:22;28.20;1.00
4795;DHT22;2411;47.060;15.064;2023-07-08T13:52:54;28.30;1.00
4795;DHT22;2411;47.060;15.064;2023-07-08T13:55:22;28.20;1.00
4795;DHT22;2411;47.060;15.064;2023-07-08T13:58:00;28.30;1.00
4795;DHT22;2411;47.060;15.064;2023-07-08T14:00:31;28.00;1.00
4795;DHT22;2411;47.060;15.064;2023-07-08T14:02:58;27.80;1.00
4795;DHT22;2411;47.060;15.064;2023-07-08T14:05:26;28.10;1.00
4795;DHT22;2411;47.060;15.064;2023-07-08T14:07:53;28.30;1.00
4795;DHT22;2411;47.060;15.064;2023-07-08T14:10:21;28.40;1.00
4795;DHT22;2411;47.060;15.064;2023-07-08T14:12:48;28.20;1.00
4795;DHT22;2411;47.060;15.064;2023-07-08T14:15:16;28.30;1.00
4795;DHT22;2411;47.060;15.064;2023-07-08T14:17:43;28.40;1.00
4795;DHT22;2411;47.060;15.064;2023-07-08T14:20:16;28.30;1.00
4795;DHT22;2411;47.060;15.064;2023-07-08T14:22:44;28.40;1.00
4795;DHT22;2411;47.060;15.064;2023-07-08T14:25:14;28.70;1.00
4795;DHT22;2411;47.060;15.064;2023-07-08T14:27:42;28.70;1.00
4795;DHT22;2411;47.060;15.064;2023-07-08T14:30:10;28.60;1.00
4795;DHT22;2411;47.060;15.064;2023-07-08T14:32:37;28.60;1.00
4795;DHT22;2411;47.060;15.064;2023-07-08T14:35:34;28.80;1.00
4795;DHT22;2411;47.060;15.064;2023-07-08T14:38:01;28.80;1.00
4795;DHT22;2411;47.060;15.064;2023-07-08T14:40:36;28.80;1.00
4795;DHT22;2411;47.060;15.064;2023-07-08T14:45:45;28.50;1.00
4795;DHT22;2411;47.060;15.064;2023-07-08T14:48:14;28.60;1.00
4795;DHT22;2411;47.060;15.064;2023-07-08T14:50:41;28.80;1.00
4795;DHT22;2411;47.060;15.064;2023-07-08T14:53:09;28.70;1.00
4795;DHT22;2411;47.060;15.064;2023-07-08T14:55:36;28.60;1.00
4795;DHT22;2411;47.060;15.064;2023-07-08T14:58:04;28.40;1.00
4795;DHT22;2411;47.060;15.064;2023-07-08T15:00:31;28.50;1.00
4795;DHT22;2411;47.060;15.064;2023-07-08T15:02:59;28.60;1.00
4795;DHT22;2411;47.060;15.064;2023-07-08T15:05:27;28.70;1.00
4795;DHT22;2411;47.060;15.064;2023-07-08T15:07:57;28.80;1.00
4795;DHT22;2411;47.060;15.064;2023-07-08T15:10:29;28.70;1.00
4795;DHT22;2411;47.060;15.064;2023-07-08T15:12:59;28.80;1.00
4795;DHT22;2411;47.060;15.064;2023-07-08T15:15:30;28.90;1.00
4795;DHT22;2411;47.060;15.064;2023-07-08T15:17:59;28.70;1.00
4795;DHT22;2411;47.060;15.064;2023-07-08T15:20:28;28.60;1.00
4795;DHT22;2411;47.060;15.064;2023-07-08T15:22:55;28.50;1.00
4795;DHT22;2411;47.060;15.064;2023-07-08T15:25:23;28.50;1.00
4795;DHT22;2411;47.060;15.064;2023-07-08T15:27:52;28.40;1.00
4795;DHT22;2411;47.060;15.064;2023-07-08T15:30:23;28.60;1.00
4795;DHT22;2411;47.060;15.064;2023-07-08T15:32:51;28.60;1.00
4795;DHT22;2411;47.060;15.064;2023-07-08T15:35:21;28.70;1.00
4795;DHT22;2411;47.060;15.064;2023-07-08T15:37:52;28.50;1.00
4795;DHT22;2411;47.060;15.064;2023-07-08T15:40:21;28.60;1.00
4795;DHT22;2411;47.060;15.064;2023-07-08T15:42:53;28.60;1.00
4795;DHT22;2411;47.060;15.064;2023-07-08T15:45:35;28.70;1.00
4795;DHT22;2411;47.060;15.064;2023-07-08T15:48:04;28.30;1.00
4795;DHT22;2411;47.060;15.064;2023-07-08T15:50:32;28.40;1.00
4795;DHT22;2411;47.060;15.064;2023-07-08T15:52:59;28.40;1.00
4795;DHT22;2411;47.060;15.064;2023-07-08T15:55:30;28.30;1.00
4795;DHT22;2411;47.060;15.064;2023-07-08T15:58:02;28.40;1.00
4795;DHT22;2411;47.060;15.064;2023-07-08T16:00:32;28.70;1.00
4795;DHT22;2411;47.060;15.064;2023-07-08T16:03:03;28.70;1.00
4795;DHT22;2411;47.060;15.064;2023-07-08T16:05:32;29.00;1.00
4795;DHT22;2411;47.060;15.064;2023-07-08T16:08:02;29.30;1.00
4795;DHT22;2411;47.060;15.064;2023-07-08T16:10:32;29.60;1.00
4795;DHT22;2411;47.060;15.064;2023-07-08T16:13:01;30.10;1.00
4795;DHT22;2411;47.060;15.064;2023-07-08T16:15:34;30.70;1.00
4795;DHT22;2411;47.060;15.064;2023-07-08T16:18:02;31.00;1.00
4795;DHT22;2411;47.060;15.064;2023-07-08T16:20:30;31.60;1.00
4795;DHT22;2411;47.060;15.064;2023-07-08T16:22:59;31.90;1.60
4795;DHT22;2411;47.060;15.064;2023-07-08T16:25:53;32.20;2.30
4795;DHT22;2411;47.060;15.064;2023-07-08T16:28:33;31.90;1.00
4795;DHT22;2411;47.060;15.064;2023-07-08T16:31:01;31.80;1.00
4795;DHT22;2411;47.060;15.064;2023-07-08T16:33:28;31.50;1.00
4795;DHT22;2411;47.060;15.064;2023-07-08T16:35:56;31.40;1.00
4795;DHT22;2411;47.060;15.064;2023-07-08T16:38:23;31.60;1.00
4795;DHT22;2411;47.060;15.064;2023-07-08T16:40:50;32.30;2.70
4795;DHT22;2411;47.060;15.064;2023-07-08T16:43:27;32.10;1.00
4795;DHT22;2411;47.060;15.064;2023-07-08T16:45:59;31.80;1.00
4795;DHT22;2411;47.060;15.064;2023-07-08T16:48:27;32.20;1.00
4795;DHT22;2411;47.060;15.064;2023-07-08T16:50:54;31.60;1.00
4795;DHT22;2411;47.060;15.064;2023-07-08T16:53:21;32.40;1.00
4795;DHT22;2411;47.060;15.064;2023-07-08T16:55:49;31.90;1.00
4795;DHT22;2411;47.060;15.064;2023-07-08T16:58:16;32.00;1.00
4795;DHT22;2411;47.060;15.064;2023-07-08T17:00:45;31.50;1.00
4795;DHT22;2411;47.060;15.064;2023-07-08T17:03:15;31.40;1.00
4795;DHT22;2411;47.060;15.064;2023-07-08T17:05:43;31.60;1.00
4795;DHT22;2411;47.060;15.064;2023-07-08T17:08:13;31.60;1.00
4795;DHT22;2411;47.060;15.064;2023-07-08T17:10:41;31.20;1.00
4795;DHT22;2411;47.060;15.064;2023-07-08T17:13:09;32.00;1.00
4795;DHT22;2411;47.060;15.064;2023-07-08T17:15:37;32.00;1.00
4795;DHT22;2411;47.060;15.064;2023-07-08T17:18:05;31.80;1.00
4795;DHT22;2411;47.060;15.064;2023-07-08T17:20:35;31.40;1.00
4795;DHT22;2411;47.060;15.064;2023-07-08T17:23:12;31.20;1.00
4795;DHT22;2411;47.060;15.064;2023-07-08T17:25:39;31.30;1.00
4795;DHT22;2411;47.060;15.064;2023-07-08T17:28:07;31.40;1.00
4795;DHT22;2411;47.060;15.064;2023-07-08T17:30:34;31.30;1.00
4795;DHT22;2411;47.060;15.064;2023-07-08T17:33:02;31.50;1.00
4795;DHT22;2411;47.060;15.064;2023-07-08T17:35:29;30.80;1.00
4795;DHT22;2411;47.060;15.064;2023-07-08T17:37:57;29.80;1.00